Time;durP1;ratioP1;P1;durP2;ratioP2;P2;SDS_P1;SDS_P2;PMS_P1;PMS_P2;Temp;Humidity;BMP_temperature;BMP_pressure;BME280_temperature;BME280_humidity;BME280_pressure;Samples;Min_cycle;Max_cycle;Signal;HPM_P1;HPM_P2
2023/02/27 00:00:52;;;;;;;7.55;3.92;;;-2.80;99.90;;;;;;5089505;28;20600;-65
2023/02/27 00:03:20;;;;;;;6.30;4.18;;;-2.70;99.90;;;;;;5089969;28;20044;-65
2023/02/27 00:05:47;;;;;;;5.47;3.92;;;-2.70;99.90;;;;;;5091327;28;20124;-68
2023/02/27 00:08:15;;;;;;;6.25;3.65;;;-2.80;99.90;;;;;;5089934;28;20044;-65
2023/02/27 00:10:42;;;;;;;7.03;3.72;;;-2.80;99.90;;;;;;5103110;28;20079;-67
2023/02/27 00:13:09;;;;;;;9.80;4.00;;;-2.80;99.90;;;;;;5088881;28;20044;-65
2023/02/27 00:15:37;;;;;;;6.68;4.13;;;-2.90;99.90;;;;;;5089461;28;20047;-65
2023/02/27 00:18:04;;;;;;;8.60;4.57;;;-2.90;99.90;;;;;;5090873;28;20044;-66
2023/02/27 00:20:36;;;;;;;8.75;4.43;;;-3.00;99.90;;;;;;5090831;28;20049;-65
2023/02/27 00:23:06;;;;;;;7.60;3.78;;;-3.00;99.90;;;;;;5090486;28;20040;-65
2023/02/27 00:25:35;;;;;;;6.85;4.35;;;-3.00;99.90;;;;;;5088990;28;20467;-66
2023/02/27 00:28:03;;;;;;;6.95;4.20;;;-3.10;99.90;;;;;;5089271;28;20043;-65
2023/02/27 00:30:31;;;;;;;7.72;4.38;;;-3.10;99.90;;;;;;5088561;28;20040;-65
2023/02/27 00:32:59;;;;;;;4.57;3.85;;;-3.20;99.90;;;;;;5090352;28;20115;-65
2023/02/27 00:35:26;;;;;;;8.25;4.50;;;-3.20;99.90;;;;;;5090711;28;20115;-66
2023/02/27 00:37:54;;;;;;;5.95;4.15;;;-3.20;99.90;;;;;;5090185;28;20096;-66
2023/02/27 00:40:24;;;;;;;9.93;4.95;;;-3.20;99.90;;;;;;5089478;28;20380;-66
2023/02/27 00:42:51;;;;;;;9.30;4.55;;;-3.20;99.90;;;;;;5089826;28;20048;-66
2023/02/27 00:45:19;;;;;;;8.38;3.85;;;-3.20;99.90;;;;;;5088992;28;20123;-66
2023/02/27 00:47:47;;;;;;;8.00;4.38;;;-3.20;99.90;;;;;;5088200;28;20074;-65
2023/02/27 00:50:15;;;;;;;7.70;4.22;;;-3.20;99.90;;;;;;5088290;28;20532;-66
2023/02/27 00:52:42;;;;;;;6.93;4.00;;;-3.30;99.90;;;;;;5086408;28;20046;-66
2023/02/27 00:55:10;;;;;;;5.95;4.00;;;-3.30;99.90;;;;;;5101030;28;20067;-66
2023/02/27 00:57:38;;;;;;;5.55;4.07;;;-3.30;99.90;;;;;;5090900;28;20063;-66
2023/02/27 01:00:07;;;;;;;6.68;4.07;;;-3.30;99.90;;;;;;5088926;28;20043;-67
2023/02/27 01:02:35;;;;;;;4.97;3.80;;;-3.30;99.90;;;;;;5089972;28;20086;-65
2023/02/27 01:05:03;;;;;;;5.75;4.05;;;-3.30;99.90;;;;;;5089096;28;20051;-65
2023/02/27 01:07:30;;;;;;;7.03;3.90;;;-3.30;99.90;;;;;;5089963;28;20133;-65
2023/02/27 01:10:01;;;;;;;9.52;4.15;;;-3.30;99.90;;;;;;5088949;28;20428;-65
2023/02/27 01:12:28;;;;;;;6.00;4.20;;;-3.40;99.90;;;;;;5093724;28;20044;-66
2023/02/27 01:14:56;;;;;;;6.88;3.75;;;-3.40;99.90;;;;;;5088696;28;20128;-66
2023/02/27 01:17:23;;;;;;;9.85;4.28;;;-3.40;99.90;;;;;;5089740;28;20430;-66
2023/02/27 01:19:50;;;;;;;5.95;3.88;;;-3.40;99.90;;;;;;5089751;28;20050;-65
2023/02/27 01:22:18;;;;;;;6.63;4.05;;;-3.50;99.90;;;;;;5087908;28;20176;-65
2023/02/27 01:24:45;;;;;;;10.10;3.83;;;-3.50;99.90;;;;;;5089119;28;20067;-65
2023/02/27 01:27:13;;;;;;;8.05;4.20;;;-3.50;99.90;;;;;;5088924;28;20436;-65
2023/02/27 01:29:40;;;;;;;7.68;4.07;;;-3.50;99.90;;;;;;5073340;28;20036;-65
2023/02/27 01:32:07;;;;;;;6.88;4.05;;;-3.50;99.90;;;;;;5101497;28;20058;-65
2023/02/27 01:34:35;;;;;;;6.07;3.50;;;-3.50;99.90;;;;;;5108785;28;20092;-65
2023/02/27 01:37:02;;;;;;;8.63;4.03;;;-3.50;99.90;;;;;;5092367;28;20090;-65
2023/02/27 01:39:31;;;;;;;6.15;3.80;;;-3.50;99.90;;;;;;5087960;28;20216;-65
2023/02/27 01:41:59;;;;;;;6.43;3.35;;;-3.40;99.90;;;;;;5087034;28;20121;-65
2023/02/27 01:44:29;;;;;;;7.68;3.65;;;-3.40;99.90;;;;;;5090453;28;20048;-65
2023/02/27 01:46:57;;;;;;;5.50;3.58;;;-3.40;99.90;;;;;;5055473;28;20106;-68
2023/02/27 01:49:32;;;;;;;8.20;4.30;;;-3.30;99.90;;;;;;5087634;28;20452;-65
2023/02/27 01:52:04;;;;;;;8.38;4.28;;;-3.30;99.90;;;;;;5089303;28;20146;-65
2023/02/27 01:54:37;;;;;;;6.22;3.95;;;-3.30;99.90;;;;;;5088532;28;20042;-65
2023/02/27 01:57:06;;;;;;;6.75;3.95;;;-3.30;99.90;;;;;;5089912;28;20503;-65
2023/02/27 01:59:35;;;;;;;4.85;3.42;;;-3.40;99.90;;;;;;5087037;28;20062;-65
2023/02/27 02:02:07;;;;;;;8.77;4.47;;;-3.50;99.90;;;;;;5088521;28;20036;-65
2023/02/27 02:04:38;;;;;;;6.85;3.90;;;-3.50;99.90;;;;;;5073870;28;20545;-65
2023/02/27 02:07:10;;;;;;;6.85;4.18;;;-3.50;99.90;;;;;;5108738;28;20554;-65
2023/02/27 02:09:43;;;;;;;5.55;3.60;;;-3.50;99.90;;;;;;5113233;28;20144;-65
2023/02/27 02:12:14;;;;;;;6.97;4.40;;;-3.50;99.90;;;;;;5094133;28;20040;-65
2023/02/27 02:14:43;;;;;;;7.32;3.85;;;-3.50;99.90;;;;;;5114413;28;20650;-65
2023/02/27 02:17:29;;;;;;;;;;;-3.50;99.90;;;;;;5112935;28;20509;-65
2023/02/27 02:20:06;;;;;;;12.50;5.85;;;-3.50;99.90;;;;;;5102651;28;19951;-65
2023/02/27 02:22:52;;;;;;;10.00;5.65;;;-3.60;99.90;;;;;;5101147;28;20039;-65
2023/02/27 02:25:47;;;;;;;8.48;4.30;;;-3.60;99.90;;;;;;5101793;28;20040;-65
2023/02/27 02:28:33;;;;;;;11.00;4.35;;;-3.50;99.90;;;;;;5091994;28;20105;-64
2023/02/27 02:31:09;;;;;;;4.72;3.40;;;-3.50;99.90;;;;;;5111897;28;20120;-65
2023/02/27 02:33:55;;;;;;;7.30;3.78;;;-3.50;99.90;;;;;;5091669;28;20051;-65
2023/02/27 02:37:00;;;;;;;7.85;3.97;;;-3.50;99.90;;;;;;5090546;28;20070;-65
2023/02/27 02:39:36;;;;;;;7.45;3.63;;;-3.50;99.90;;;;;;5089681;28;20144;-64
2023/02/27 02:42:42;;;;;;;9.48;3.80;;;-3.40;99.90;;;;;;5090320;28;20123;-65
2023/02/27 02:45:12;;;;;;;5.95;3.53;;;-3.40;99.90;;;;;;5026952;28;20500;-65
2023/02/27 02:48:06;;;;;;;5.78;3.45;;;-3.30;99.90;;;;;;5029335;28;20053;-65
2023/02/27 02:51:00;;;;;;;6.55;3.38;;;-3.30;99.90;;;;;;5013622;28;20144;-64
2023/02/27 02:53:44;;;;;;;5.57;3.30;;;-3.30;99.90;;;;;;5030130;28;20075;-65
2023/02/27 02:56:11;;;;;;;8.05;4.10;;;-3.30;99.90;;;;;;4997641;28;20076;-65
2023/02/27 02:58:45;;;;;;;7.07;3.80;;;-3.20;99.90;;;;;;5029020;28;20630;-65
2023/02/27 03:01:17;;;;;;;8.30;3.88;;;-3.20;99.90;;;;;;5025513;28;20063;-65
2023/02/27 03:03:54;;;;;;;5.57;3.53;;;-3.20;99.90;;;;;;5013088;28;20153;-65
2023/02/27 03:06:31;;;;;;;6.93;3.92;;;-3.20;99.90;;;;;;5027185;28;20551;-65
2023/02/27 03:09:13;;;;;;;6.03;3.55;;;-3.20;99.90;;;;;;5013084;28;20050;-64
2023/02/27 03:11:45;;;;;;;7.35;3.70;;;-3.20;99.90;;;;;;5011981;28;20052;-64
2023/02/27 03:14:36;;;;;;;7.63;3.35;;;-3.20;99.90;;;;;;5012957;28;20057;-64
2023/02/27 03:17:16;;;;;;;4.82;3.55;;;-3.20;99.90;;;;;;5012002;28;20076;-64
2023/02/27 03:19:58;;;;;;;6.72;3.35;;;-3.10;99.90;;;;;;5033863;28;20487;-64
2023/02/27 03:22:33;;;;;;;6.47;3.80;;;-3.20;99.90;;;;;;5073033;28;20076;-64
2023/02/27 03:25:03;;;;;;;5.78;3.70;;;-3.20;99.90;;;;;;5105778;28;20494;-64
2023/02/27 03:27:36;;;;;;;6.18;3.63;;;-3.20;99.90;;;;;;5089731;28;20032;-64
2023/02/27 03:30:19;;;;;;;6.32;4.07;;;-3.20;99.90;;;;;;5088660;28;20562;-64
2023/02/27 03:32:55;;;;;;;4.68;3.40;;;-3.20;99.90;;;;;;5089679;28;20571;-64
2023/02/27 03:35:54;;;;;;;5.47;3.60;;;-3.20;99.90;;;;;;5089657;28;20092;-64
2023/02/27 03:38:24;;;;;;;5.72;3.80;;;-3.30;99.90;;;;;;5088845;28;20112;-64
2023/02/27 03:41:05;;;;;;;6.95;3.97;;;-3.30;99.90;;;;;;5089418;28;20082;-63
2023/02/27 03:43:49;;;;;;;6.15;3.40;;;-3.20;99.90;;;;;;5100128;28;20057;-64
2023/02/27 03:46:23;;;;;;;6.10;4.10;;;-3.20;99.90;;;;;;5103566;28;20044;-65
2023/02/27 03:48:50;;;;;;;5.72;3.72;;;-3.20;99.90;;;;;;5089817;28;20032;-64
2023/02/27 03:51:23;;;;;;;7.30;3.92;;;-3.10;99.90;;;;;;5070945;28;20058;-65
2023/02/27 03:54:09;;;;;;;7.05;4.03;;;-3.10;99.90;;;;;;5090999;28;20048;-64
2023/02/27 03:56:47;;;;;;;6.38;4.07;;;-3.10;99.90;;;;;;5106953;28;20616;-64
2023/02/27 03:59:14;;;;;;;5.38;3.85;;;-3.10;99.90;;;;;;5101898;28;20367;-65
2023/02/27 04:01:47;;;;;;;7.30;4.32;;;-3.10;99.90;;;;;;5107929;28;20039;-64
2023/02/27 04:04:17;;;;;;;9.63;5.00;;;-3.10;99.90;;;;;;5090104;28;20036;-63
2023/02/27 04:07:30;;;;;;;8.02;4.07;;;-3.10;99.90;;;;;;5089783;28;20115;-64
2023/02/27 04:10:12;;;;;;;6.97;3.92;;;-3.20;99.90;;;;;;5078200;28;20060;-64
2023/02/27 04:12:55;;;;;;;;;;;-3.20;99.90;;;;;;5089562;28;20406;-65
2023/02/27 04:15:22;;;;;;;6.82;4.20;;;-3.20;99.90;;;;;;5090783;28;19955;-65
2023/02/27 04:18:03;;;;;;;8.50;4.25;;;-3.20;99.90;;;;;;5089943;28;20043;-64
2023/02/27 04:20:46;;;;;;;8.05;4.15;;;-3.20;99.90;;;;;;5088435;28;20036;-65
2023/02/27 04:23:51;;;;;;;6.22;4.10;;;-3.20;99.90;;;;;;5089276;28;20044;-64
2023/02/27 04:26:36;;;;;;;5.63;4.15;;;-3.30;99.90;;;;;;5087713;28;20039;-65
2023/02/27 04:29:38;;;;;;;7.30;4.40;;;-3.30;99.90;;;;;;5090040;28;20040;-64
2023/02/27 04:32:20;;;;;;;;;;;-3.40;99.90;;;;;;5087796;28;20040;-64
2023/02/27 04:34:54;;;;;;;7.15;4.35;;;-3.40;99.90;;;;;;5075917;28;19954;-64
2023/02/27 04:37:45;;;;;;;9.35;4.55;;;-3.40;99.90;;;;;;5101249;28;20419;-65
2023/02/27 04:40:18;;;;;;;7.90;3.80;;;-3.40;99.90;;;;;;5110445;28;20524;-65
2023/02/27 04:42:49;;;;;;;5.65;3.85;;;-3.40;99.90;;;;;;5101907;28;20055;-63
2023/02/27 04:45:21;;;;;;;7.70;4.43;;;-3.50;99.90;;;;;;5090295;28;20408;-63
2023/02/27 04:47:56;;;;;;;6.38;3.92;;;-3.50;99.90;;;;;;5087345;28;20059;-63
2023/02/27 04:50:29;;;;;;;6.47;3.88;;;-3.50;99.90;;;;;;5089156;28;20090;-65
2023/02/27 04:53:02;;;;;;;6.97;4.00;;;-3.40;99.90;;;;;;5088888;28;20039;-66
2023/02/27 04:55:34;;;;;;;5.32;4.07;;;-3.40;99.90;;;;;;5097985;28;20046;-65
2023/02/27 04:58:16;;;;;;;8.55;4.43;;;-3.50;99.90;;;;;;5088771;28;20448;-64
2023/02/27 05:00:45;;;;;;;;;;;-3.40;99.90;;;;;;5088150;28;20479;-66
2023/02/27 05:03:20;;;;;;;6.10;4.13;;;-3.50;99.90;;;;;;5087543;28;20450;-66
2023/02/27 05:05:50;;;;;;;5.82;3.88;;;-3.50;99.90;;;;;;5089761;28;20036;-66
2023/02/27 05:08:34;;;;;;;5.82;4.22;;;-3.60;99.90;;;;;;5105349;28;20057;-64
2023/02/27 05:11:12;;;;;;;5.43;4.15;;;-3.60;99.90;;;;;;5103438;28;20062;-64
2023/02/27 05:14:01;;;;;;;8.80;5.57;;;-3.60;99.90;;;;;;5099053;28;20051;-64
2023/02/27 05:16:35;;;;;;;7.30;4.43;;;-3.60;99.90;;;;;;5092762;28;20069;-65
2023/02/27 05:19:04;;;;;;;8.77;4.85;;;-3.70;99.90;;;;;;5088148;28;20130;-64
2023/02/27 05:21:47;;;;;;;7.68;4.75;;;-3.70;99.90;;;;;;5096994;28;20039;-64
2023/02/27 05:24:32;;;;;;;10.98;4.30;;;-3.70;99.90;;;;;;5106169;28;20046;-65
2023/02/27 05:27:17;;;;;;;6.07;4.22;;;-3.70;99.90;;;;;;5089131;28;20059;-64
2023/02/27 05:29:48;;;;;;;12.23;4.50;;;-3.70;99.90;;;;;;5105143;28;20154;-64
2023/02/27 05:32:40;;;;;;;7.88;4.43;;;-3.70;99.90;;;;;;5102480;28;20047;-64
2023/02/27 05:35:17;;;;;;;8.68;4.90;;;-3.70;99.90;;;;;;5100398;28;20130;-64
2023/02/27 05:38:04;;;;;;;7.88;4.97;;;-3.60;99.90;;;;;;5101355;28;20054;-64
2023/02/27 05:40:38;;;;;;;9.90;5.05;;;-3.60;99.90;;;;;;5094280;28;20473;-64
2023/02/27 05:43:17;;;;;;;8.35;5.07;;;-3.70;99.90;;;;;;5093102;28;20055;-65
2023/02/27 05:45:49;;;;;;;34.42;7.28;;;-3.70;99.90;;;;;;5090906;28;20786;-64
2023/02/27 05:48:41;;;;;;;9.70;4.90;;;-3.70;99.90;;;;;;5058027;28;20131;-65
2023/02/27 05:51:11;;;;;;;9.85;5.30;;;-3.80;99.90;;;;;;5092061;28;20130;-64
2023/02/27 05:53:49;;;;;;;8.60;5.03;;;-3.80;99.90;;;;;;5093084;28;20058;-64
2023/02/27 05:56:18;;;;;;;9.38;5.40;;;-3.80;99.90;;;;;;5090917;28;20052;-64
2023/02/27 05:59:16;;;;;;;10.68;5.65;;;-3.80;99.90;;;;;;5092875;28;20074;-64
2023/02/27 06:01:43;;;;;;;16.25;5.80;;;-3.80;99.90;;;;;;5091365;28;20468;-65
2023/02/27 06:04:12;;;;;;;11.07;6.65;;;-3.80;99.90;;;;;;5093665;28;20078;-64
2023/02/27 06:06:40;;;;;;;12.18;6.95;;;-3.90;99.90;;;;;;5093343;28;20506;-65
2023/02/27 06:09:08;;;;;;;16.30;6.90;;;-3.90;99.90;;;;;;5091714;28;20048;-64
2023/02/27 06:11:36;;;;;;;11.98;6.47;;;-3.90;99.90;;;;;;5100033;28;20052;-64
2023/02/27 06:14:03;;;;;;;15.45;6.55;;;-3.90;99.90;;;;;;5099397;28;20131;-64
2023/02/27 06:16:30;;;;;;;8.35;5.40;;;-3.90;99.90;;;;;;5092679;28;20051;-65
2023/02/27 06:18:58;;;;;;;10.73;5.93;;;-3.90;99.90;;;;;;5092299;28;20440;-64
2023/02/27 06:21:25;;;;;;;9.57;5.80;;;-3.80;99.90;;;;;;5104020;28;20055;-64
2023/02/27 06:23:52;;;;;;;7.63;5.18;;;-3.70;99.90;;;;;;5093121;28;20521;-65
2023/02/27 06:26:19;;;;;;;9.55;5.10;;;-3.70;99.90;;;;;;5093320;28;20562;-65
2023/02/27 06:28:46;;;;;;;8.68;5.13;;;-3.70;99.90;;;;;;5096590;28;20394;-64
2023/02/27 06:31:14;;;;;;;9.68;5.00;;;-3.70;99.90;;;;;;5093035;28;20044;-64
2023/02/27 06:33:41;;;;;;;8.90;5.03;;;-3.60;99.90;;;;;;5093183;28;20555;-64
2023/02/27 06:36:08;;;;;;;9.85;5.15;;;-3.60;99.90;;;;;;5091532;28;20726;-63
2023/02/27 06:38:36;;;;;;;8.07;5.07;;;-3.50;99.90;;;;;;5091865;28;20044;-64
2023/02/27 06:41:03;;;;;;;6.88;4.95;;;-3.40;99.90;;;;;;5091122;28;20130;-63
2023/02/27 06:43:33;;;;;;;10.75;5.60;;;-3.40;99.90;;;;;;5094301;28;20119;-64
2023/02/27 06:46:00;;;;;;;9.70;5.80;;;-3.30;99.90;;;;;;5089292;28;20048;-64
2023/02/27 06:48:31;;;;;;;11.57;5.65;;;-3.30;99.90;;;;;;5091521;28;20085;-65
2023/02/27 06:50:58;;;;;;;11.20;5.68;;;-3.20;99.90;;;;;;5099377;28;20051;-64
2023/02/27 06:53:26;;;;;;;12.35;5.45;;;-3.10;99.90;;;;;;5094622;28;20040;-64
2023/02/27 06:55:53;;;;;;;9.38;5.65;;;-3.10;99.90;;;;;;5094134;28;20067;-64
2023/02/27 06:58:23;;;;;;;10.75;5.18;;;-3.00;99.90;;;;;;5092160;28;20550;-64
2023/02/27 07:00:50;;;;;;;10.70;5.60;;;-2.90;99.90;;;;;;5090187;28;20047;-64
2023/02/27 07:03:18;;;;;;;10.30;5.30;;;-2.80;99.90;;;;;;5101125;28;20825;-65
2023/02/27 07:05:45;;;;;;;9.02;5.38;;;-2.70;99.90;;;;;;5091523;28;20051;-64
2023/02/27 07:08:16;;;;;;;12.10;6.45;;;-2.60;99.90;;;;;;5089262;28;20048;-64
2023/02/27 07:10:45;;;;;;;12.68;6.57;;;-2.50;99.90;;;;;;5089579;28;20036;-64
2023/02/27 07:13:13;;;;;;;13.52;6.60;;;-2.40;99.90;;;;;;5091136;28;20047;-64
2023/02/27 07:15:45;;;;;;;;;;;-2.40;99.90;;;;;;5090572;28;20036;-65
2023/02/27 07:18:12;;;;;;;12.85;6.20;;;-2.30;99.90;;;;;;5089485;28;19920;-64
2023/02/27 07:20:39;;;;;;;13.82;6.07;;;-2.30;99.90;;;;;;5106819;28;20043;-64
2023/02/27 07:23:07;;;;;;;14.73;6.38;;;-2.20;99.90;;;;;;5103200;28;20051;-64
2023/02/27 07:25:34;;;;;;;10.25;5.57;;;-2.10;99.90;;;;;;5098148;28;20040;-64
2023/02/27 07:28:01;;;;;;;10.48;5.55;;;-2.10;99.90;;;;;;5090948;28;20513;-64
2023/02/27 07:30:29;;;;;;;10.73;5.25;;;-1.90;99.90;;;;;;5089732;28;20055;-65
2023/02/27 07:32:56;;;;;;;12.82;5.72;;;-1.90;99.90;;;;;;5091044;28;20043;-64
2023/02/27 07:35:24;;;;;;;9.43;5.55;;;-1.80;99.90;;;;;;5090759;28;20040;-63
2023/02/27 07:37:51;;;;;;;12.70;6.00;;;-1.70;99.90;;;;;;5089888;28;20472;-64
2023/02/27 07:40:18;;;;;;;11.05;5.65;;;-1.60;99.90;;;;;;5089416;28;20474;-65
2023/02/27 07:42:47;;;;;;;10.73;5.60;;;-1.60;99.90;;;;;;5105515;28;20470;-64
2023/02/27 07:45:19;;;;;;;10.20;5.72;;;-1.60;99.90;;;;;;5083474;28;20040;-62
2023/02/27 07:47:46;;;;;;;11.23;5.82;;;-1.50;99.90;;;;;;5092336;28;20477;-64
2023/02/27 07:50:13;;;;;;;11.75;5.35;;;-1.40;99.90;;;;;;5057530;28;20036;-65
2023/02/27 07:52:44;;;;;;;12.85;5.95;;;-1.40;99.90;;;;;;5093341;28;20593;-65
2023/02/27 07:55:13;;;;;;;12.60;5.60;;;-1.30;99.90;;;;;;5089694;28;20515;-64
2023/02/27 07:57:40;;;;;;;11.13;5.45;;;-1.30;99.90;;;;;;5100110;28;20047;-64
2023/02/27 08:00:08;;;;;;;9.85;5.30;;;-1.10;99.90;;;;;;5089043;28;20514;-64
2023/02/27 08:02:39;;;;;;;11.70;4.97;;;-1.10;99.90;;;;;;5093176;28;20063;-65
2023/02/27 08:05:07;;;;;;;10.63;5.40;;;-1.00;99.90;;;;;;5085930;28;20055;-64
2023/02/27 08:07:35;;;;;;;11.05;5.35;;;-0.90;99.90;;;;;;5089625;28;20036;-64
2023/02/27 08:10:06;;;;;;;13.30;5.45;;;-0.90;99.90;;;;;;5088420;28;20245;-65
2023/02/27 08:12:33;;;;;;;10.83;5.70;;;-0.80;99.90;;;;;;5089254;28;20080;-64
2023/02/27 08:15:01;;;;;;;9.57;5.35;;;-0.70;99.90;;;;;;5091113;28;20300;-64
2023/02/27 08:17:28;;;;;;;7.45;5.43;;;-0.70;99.90;;;;;;5108784;28;20048;-64
2023/02/27 08:19:55;;;;;;;9.38;4.35;;;-0.60;99.90;;;;;;5105005;28;20067;-63
2023/02/27 08:22:22;;;;;;;6.70;4.68;;;-0.60;99.90;;;;;;5095894;28;20405;-63
2023/02/27 08:24:50;;;;;;;6.53;4.38;;;-0.60;99.90;;;;;;5090809;28;20044;-65
2023/02/27 08:27:17;;;;;;;8.65;5.13;;;-0.50;99.90;;;;;;5090331;28;20060;-64
2023/02/27 08:29:45;;;;;;;8.90;4.93;;;-0.40;99.90;;;;;;5091640;28;20028;-64
2023/02/27 08:32:12;;;;;;;15.85;5.50;;;-0.30;99.90;;;;;;5088610;28;20384;-63
2023/02/27 08:34:40;;;;;;;9.93;5.50;;;-0.20;99.90;;;;;;5089266;28;20161;-64
2023/02/27 08:37:07;;;;;;;8.98;4.75;;;-0.10;99.90;;;;;;5088032;28;20521;-66
2023/02/27 08:39:34;;;;;;;6.53;4.65;;;0.00;99.90;;;;;;5087538;28;20463;-63
2023/02/27 08:42:01;;;;;;;8.75;4.90;;;0.10;99.90;;;;;;5088833;28;20046;-65
2023/02/27 08:44:29;;;;;;;7.90;4.85;;;0.10;99.90;;;;;;5090182;28;20335;-64
2023/02/27 08:46:56;;;;;;;10.77;6.38;;;0.20;99.90;;;;;;5088318;28;20390;-65
2023/02/27 08:49:24;;;;;;;12.25;4.80;;;0.30;99.90;;;;;;5098930;28;20043;-65
2023/02/27 08:51:52;;;;;;;9.75;5.20;;;0.40;99.90;;;;;;5091773;28;20052;-65
2023/02/27 08:54:19;;;;;;;8.60;4.50;;;0.60;99.90;;;;;;5089763;28;20074;-65
2023/02/27 08:56:47;;;;;;;6.63;4.07;;;0.70;99.90;;;;;;5071133;28;20047;-64
2023/02/27 08:59:14;;;;;;;13.90;4.70;;;0.80;99.90;;;;;;5087506;28;20040;-65
2023/02/27 09:01:42;;;;;;;11.30;5.90;;;0.80;99.90;;;;;;5090065;28;20051;-63
2023/02/27 09:04:10;;;;;;;6.93;4.55;;;0.90;99.90;;;;;;5104849;28;20047;-64
2023/02/27 09:06:38;;;;;;;8.55;4.22;;;0.90;99.90;;;;;;5087935;28;20514;-64
2023/02/27 09:09:05;;;;;;;8.80;4.90;;;1.00;99.90;;;;;;5091850;28;20038;-65
2023/02/27 09:11:33;;;;;;;12.43;4.97;;;1.20;99.90;;;;;;5087581;28;20487;-66
2023/02/27 09:14:02;;;;;;;7.30;4.28;;;1.30;99.90;;;;;;5107778;28;20048;-64
2023/02/27 09:16:30;;;;;;;7.80;4.20;;;1.30;99.90;;;;;;5103039;28;20035;-64
2023/02/27 09:18:57;;;;;;;20.55;4.82;;;1.40;99.90;;;;;;5087215;28;20044;-65
2023/02/27 09:21:25;;;;;;;9.07;4.60;;;1.60;99.90;;;;;;5095466;28;20040;-65
2023/02/27 09:23:52;;;;;;;10.45;4.45;;;1.80;99.90;;;;;;5102928;28;20038;-65
2023/02/27 09:26:19;;;;;;;5.25;4.07;;;2.00;99.90;;;;;;5103374;28;20047;-66
2023/02/27 09:28:58;;;;;;;5.40;4.20;;;2.00;99.90;;;;;;5095088;28;20052;-64
2023/02/27 09:31:25;;;;;;;12.07;4.00;;;2.10;99.90;;;;;;5085774;28;20471;-66
2023/02/27 09:33:54;;;;;;;8.55;4.07;;;2.30;99.90;;;;;;5092096;28;20398;-64
2023/02/27 09:36:21;;;;;;;7.65;4.10;;;2.40;99.90;;;;;;5095868;28;20490;-64
2023/02/27 09:38:48;;;;;;;7.20;5.22;;;2.60;99.90;;;;;;5097567;28;20441;-64
2023/02/27 09:41:38;;;;;;;6.65;4.40;;;2.80;99.90;;;;;;5097048;28;20062;-63
2023/02/27 09:44:25;;;;;;;6.80;4.40;;;2.90;99.90;;;;;;5093342;28;20498;-64
2023/02/27 09:47:34;;;;;;;8.13;4.65;;;3.10;99.90;;;;;;5100773;28;20494;-63
2023/02/27 09:50:06;;;;;;;12.77;4.78;;;2.90;99.90;;;;;;5091679;28;20040;-64
2023/02/27 09:52:36;;;;;;;10.38;4.82;;;2.80;99.90;;;;;;5096961;28;20040;-63
2023/02/27 09:55:16;;;;;;;8.45;4.80;;;2.50;99.90;;;;;;5088709;28;20056;-65
2023/02/27 09:57:55;;;;;;;9.50;5.03;;;2.50;99.90;;;;;;5088951;28;20517;-62
2023/02/27 10:00:58;;;;;;;12.65;5.78;;;2.60;99.90;;;;;;5100984;28;20451;-64
2023/02/27 10:03:52;;;;;;;7.20;4.70;;;2.80;99.90;;;;;;5089124;28;20032;-63
2023/02/27 10:06:44;;;;;;;11.80;5.70;;;2.90;99.90;;;;;;5087623;28;20040;-63
2023/02/27 10:09:29;;;;;;;10.38;6.00;;;3.20;99.90;;;;;;5088566;28;20043;-63
2023/02/27 10:12:22;;;;;;;11.93;5.05;;;3.60;99.90;;;;;;5096913;28;20050;-64
2023/02/27 10:15:07;;;;;;;8.95;4.47;;;3.90;99.90;;;;;;5102105;28;20470;-63
2023/02/27 10:17:48;;;;;;;7.05;4.18;;;4.50;99.90;;;;;;5091505;28;20135;-65
2023/02/27 10:20:32;;;;;;;7.40;4.07;;;4.80;99.90;;;;;;5094916;28;20459;-61
2023/02/27 10:23:05;;;;;;;7.03;4.07;;;5.30;99.90;;;;;;5094944;28;20190;-64
2023/02/27 10:25:37;;;;;;;6.97;4.40;;;5.30;99.90;;;;;;5101980;28;20090;-64
2023/02/27 10:28:12;;;;;;;12.27;7.53;;;5.50;99.90;;;;;;5095162;28;20043;-65
2023/02/27 10:30:40;;;;;;;7.03;4.30;;;5.20;99.90;;;;;;5088347;28;21119;-64
2023/02/27 10:33:15;;;;;;;4.57;4.05;;;4.90;99.90;;;;;;5099105;28;20846;-63
2023/02/27 10:35:44;;;;;;;9.43;5.32;;;4.80;99.90;;;;;;5099852;28;20383;-66
2023/02/27 10:38:19;;;;;;;7.03;4.80;;;4.80;99.90;;;;;;5098759;28;20055;-64
2023/02/27 10:40:47;;;;;;;7.10;5.10;;;4.90;99.90;;;;;;5106656;28;20105;-63
2023/02/27 10:43:18;;;;;;;11.30;4.78;;;5.20;99.90;;;;;;5102786;28;20036;-64
2023/02/27 10:45:45;;;;;;;11.27;4.65;;;5.20;99.90;;;;;;5087014;28;20402;-64
2023/02/27 10:48:14;;;;;;;7.63;4.32;;;5.30;99.90;;;;;;5100559;28;20148;-63
2023/02/27 10:50:44;;;;;;;6.00;4.35;;;5.20;99.90;;;;;;5103656;28;20490;-63
2023/02/27 10:53:37;;;;;;;6.45;4.60;;;5.20;99.90;;;;;;5089669;28;20409;-65
2023/02/27 10:56:09;;;;;;;7.90;4.57;;;5.80;99.90;;;;;;5095116;28;20058;-64
2023/02/27 10:58:36;;;;;;;7.28;4.90;;;6.40;99.90;;;;;;5096218;28;20040;-64
2023/02/27 11:01:07;;;;;;;7.55;4.57;;;6.80;99.90;;;;;;5097792;28;20042;-65
2023/02/27 11:03:41;;;;;;;5.30;4.10;;;6.40;99.90;;;;;;5094585;28;20130;-63
2023/02/27 11:06:23;;;;;;;14.60;8.27;;;6.40;99.90;;;;;;5098931;28;20043;-63
2023/02/27 11:09:11;;;;;;;5.03;4.15;;;6.20;99.90;;;;;;5110679;28;20448;-62
2023/02/27 11:11:38;;;;;;;4.90;3.97;;;5.80;99.90;;;;;;5097594;28;20053;-64
2023/02/27 11:14:18;;;;;;;6.70;4.60;;;5.60;99.90;;;;;;5105740;28;20065;-63
2023/02/27 11:16:51;;;;;;;5.80;4.20;;;5.70;99.90;;;;;;5100021;28;20138;-64
2023/02/27 11:19:30;;;;;;;9.27;4.20;;;6.00;99.90;;;;;;5096822;28;20048;-64
2023/02/27 11:22:14;;;;;;;4.63;4.13;;;6.00;99.90;;;;;;5094669;28;20044;-64
2023/02/27 11:24:41;;;;;;;7.97;4.47;;;5.60;99.90;;;;;;5087570;28;20042;-65
2023/02/27 11:27:29;;;;;;;5.70;4.72;;;5.40;99.90;;;;;;5092353;28;20044;-63
2023/02/27 11:30:19;;;;;;;6.05;4.43;;;5.10;99.90;;;;;;5087398;28;20514;-63
2023/02/27 11:32:50;;;;;;;7.82;4.90;;;5.10;99.90;;;;;;5090676;28;20066;-64
2023/02/27 11:35:25;;;;;;;7.15;4.75;;;5.20;99.90;;;;;;5089084;28;20407;-65
2023/02/27 11:37:55;;;;;;;7.28;4.68;;;5.20;99.90;;;;;;5098198;28;20055;-64
2023/02/27 11:40:29;;;;;;;6.63;4.45;;;5.60;99.90;;;;;;5097838;28;20064;-62
2023/02/27 11:43:04;;;;;;;4.68;4.22;;;5.90;99.90;;;;;;5091700;28;20513;-64
2023/02/27 11:45:41;;;;;;;6.30;4.63;;;6.70;99.90;;;;;;5098530;28;20043;-65
2023/02/27 11:48:41;;;;;;;7.97;4.72;;;7.30;99.90;;;;;;5090888;28;20478;-64
2023/02/27 11:51:28;;;;;;;7.60;4.45;;;7.10;99.90;;;;;;5101885;28;20545;-65
2023/02/27 11:53:56;;;;;;;7.30;4.88;;;7.60;99.90;;;;;;5090486;28;20051;-64
2023/02/27 11:56:29;;;;;;;5.25;4.57;;;7.80;99.90;;;;;;5093738;28;20040;-64
2023/02/27 11:59:18;;;;;;;7.65;5.70;;;8.30;99.90;;;;;;5090639;28;20104;-64
2023/02/27 12:02:10;;;;;;;6.35;4.40;;;8.40;99.90;;;;;;5097702;28;20062;-64
2023/02/27 12:05:11;;;;;;;5.30;4.53;;;8.60;99.90;;;;;;5097823;28;20132;-65
2023/02/27 12:08:19;;;;;;;4.85;4.45;;;9.40;99.80;;;;;;5089262;28;20062;-64
2023/02/27 12:11:05;;;;;;;6.20;5.00;;;9.30;97.30;;;;;;5088689;28;20040;-67
2023/02/27 12:13:46;;;;;;;9.00;5.05;;;9.40;97.70;;;;;;5089271;28;20131;-69
2023/02/27 12:16:26;;;;;;;7.57;5.00;;;9.50;95.80;;;;;;5089916;28;20048;-71
2023/02/27 12:18:58;;;;;;;5.28;4.55;;;10.40;95.30;;;;;;5072116;28;20048;-69
2023/02/27 12:21:35;;;;;;;5.55;4.68;;;10.80;95.30;;;;;;5089267;28;20044;-69
2023/02/27 12:24:09;;;;;;;5.20;4.70;;;11.10;96.30;;;;;;5088724;28;20072;-64
2023/02/27 12:26:49;;;;;;;5.82;5.00;;;10.60;92.30;;;;;;5088951;28;20067;-64
2023/02/27 12:29:39;;;;;;;5.95;5.35;;;9.70;92.90;;;;;;5086133;28;20122;-64
2023/02/27 12:32:29;;;;;;;6.18;4.93;;;9.70;94.30;;;;;;5086850;28;20036;-64
2023/02/27 12:35:15;;;;;;;6.18;4.90;;;9.10;92.10;;;;;;5087951;28;20417;-64
2023/02/27 12:37:42;;;;;;;5.60;4.70;;;8.80;93.80;;;;;;5100371;28;20493;-63
2023/02/27 12:40:15;;;;;;;7.47;5.13;;;8.80;92.90;;;;;;5096343;28;20047;-64
2023/02/27 12:42:45;;;;;;;7.97;5.50;;;9.00;93.80;;;;;;5092031;28;20040;-63
2023/02/27 12:45:31;;;;;;;5.10;4.60;;;9.90;93.60;;;;;;5087851;28;20506;-65
2023/02/27 12:48:43;;;;;;;5.78;4.95;;;10.50;92.00;;;;;;5088102;28;20055;-64
2023/02/27 12:51:19;;;;;;;5.28;4.78;;;10.20;93.50;;;;;;5038392;28;20361;-65
2023/02/27 12:54:25;;;;;;;9.35;5.32;;;10.80;90.80;;;;;;5029906;28;20700;-64
2023/02/27 12:57:11;;;;;;;5.55;5.00;;;12.10;90.40;;;;;;5015121;28;20041;-63
2023/02/27 13:00:05;;;;;;;5.70;5.10;;;13.10;84.40;;;;;;5026930;28;20475;-63
2023/02/27 13:02:35;;;;;;;5.30;4.80;;;13.00;83.40;;;;;;5044161;28;20496;-64
2023/02/27 13:05:21;;;;;;;5.07;4.28;;;13.00;84.40;;;;;;5041689;28;20118;-64
2023/02/27 13:08:15;;;;;;;5.10;4.60;;;13.50;81.90;;;;;;5030455;28;20438;-65
2023/02/27 13:11:09;;;;;;;5.70;4.47;;;14.80;77.90;;;;;;5043871;28;20045;-64
2023/02/27 13:13:46;;;;;;;7.05;5.43;;;16.40;73.00;;;;;;5000735;28;20578;-65
2023/02/27 13:16:23;;;;;;;5.57;5.07;;;15.80;71.80;;;;;;5044838;28;20044;-64
2023/02/27 13:18:55;;;;;;;5.53;4.97;;;14.40;73.10;;;;;;5028925;28;20180;-64
2023/02/27 13:21:23;;;;;;;5.60;4.90;;;13.50;73.10;;;;;;5043118;28;20043;-64
2023/02/27 13:24:12;;;;;;;5.50;5.00;;;12.80;74.90;;;;;;5088071;28;20076;-64
2023/02/27 13:26:49;;;;;;;5.40;4.90;;;12.00;75.70;;;;;;5089582;28;20058;-65